Time;durP1;ratioP1;P1;durP2;ratioP2;P2;SDS_P1;SDS_P2;PMS_P1;PMS_P2;Temp;Humidity;BMP_temperature;BMP_pressure;BME280_temperature;BME280_humidity;BME280_pressure;Samples;Min_cycle;Max_cycle;Signal;HPM_P1;HPM_P2
2021/12/27 00:00:45;;;;;;;10.80;9.10;;;10.80;99.90;;;;;;4978315;28;20193;-78
2021/12/27 00:03:11;;;;;;;9.50;8.52;;;10.90;99.90;;;;;;4978096;28;20170;-80
2021/12/27 00:05:36;;;;;;;16.60;9.20;;;10.70;99.90;;;;;;4982946;28;20201;-79
2021/12/27 00:08:02;;;;;;;10.80;8.55;;;10.70;99.90;;;;;;4994244;28;20200;-79
2021/12/27 00:10:28;;;;;;;10.45;9.35;;;10.60;99.90;;;;;;4979879;28;20182;-79
2021/12/27 00:12:55;;;;;;;8.98;7.97;;;10.60;99.90;;;;;;4981171;28;20174;-79
2021/12/27 00:15:21;;;;;;;14.65;9.35;;;10.80;99.90;;;;;;4978884;28;20173;-81
2021/12/27 00:17:48;;;;;;;17.25;10.05;;;10.70;99.90;;;;;;4982364;28;20170;-78
2021/12/27 00:20:15;;;;;;;11.55;10.38;;;10.50;99.90;;;;;;4976937;28;20229;-79
2021/12/27 00:22:43;;;;;;;15.82;11.20;;;10.70;99.90;;;;;;4984857;28;20166;-79
2021/12/27 00:25:09;;;;;;;17.20;10.50;;;10.70;99.90;;;;;;4981351;28;20162;-78
2021/12/27 00:27:35;;;;;;;11.50;9.07;;;10.80;99.90;;;;;;4982676;28;20185;-78
2021/12/27 00:30:00;;;;;;;13.25;10.23;;;10.80;99.90;;;;;;4979104;28;20513;-78
2021/12/27 00:32:26;;;;;;;13.05;10.48;;;10.80;99.90;;;;;;4977225;28;20608;-78
2021/12/27 00:34:52;;;;;;;15.75;10.82;;;10.90;99.90;;;;;;4976388;28;20700;-78
2021/12/27 00:37:18;;;;;;;15.85;11.90;;;10.70;99.90;;;;;;4977917;28;20564;-79
2021/12/27 00:39:44;;;;;;;14.07;10.30;;;10.90;99.90;;;;;;4977701;28;20194;-78
2021/12/27 00:42:10;;;;;;;15.52;11.27;;;10.70;99.90;;;;;;4977810;28;20170;-79
2021/12/27 00:44:36;;;;;;;11.90;10.25;;;10.50;99.90;;;;;;4977602;28;20220;-78
2021/12/27 00:47:02;;;;;;;13.52;10.18;;;10.50;99.90;;;;;;4977708;28;20558;-78
2021/12/27 00:49:28;;;;;;;20.58;10.57;;;10.50;99.90;;;;;;4977452;28;20223;-78
2021/12/27 00:51:54;;;;;;;10.10;8.90;;;10.60;99.90;;;;;;4977402;28;20166;-78
2021/12/27 00:54:20;;;;;;;11.73;9.75;;;10.70;99.90;;;;;;4976959;28;20220;-80
2021/12/27 00:56:45;;;;;;;14.32;9.45;;;10.70;99.90;;;;;;4977557;28;20166;-79
2021/12/27 00:59:11;;;;;;;12.13;10.10;;;10.70;99.90;;;;;;4977712;28;20272;-81
2021/12/27 01:01:37;;;;;;;11.80;9.50;;;10.70;99.90;;;;;;4977957;28;20170;-85
2021/12/27 01:04:04;;;;;;;15.13;10.13;;;10.80;99.90;;;;;;4978020;28;20169;-84
2021/12/27 01:06:30;;;;;;;17.33;10.00;;;10.90;99.90;;;;;;4978493;28;20626;-81
2021/12/27 01:08:56;;;;;;;12.73;9.77;;;10.90;99.90;;;;;;4977693;28;20197;-86
2021/12/27 01:11:27;;;;;;;13.73;9.57;;;11.00;99.90;;;;;;4978081;28;20181;-85
2021/12/27 01:14:26;;;;;;;13.90;10.18;;;10.80;99.90;;;;;;4977704;28;20198;-82
2021/12/27 01:16:52;;;;;;;12.32;9.68;;;10.80;99.90;;;;;;4977745;28;20626;-85
2021/12/27 01:19:17;;;;;;;11.43;9.45;;;11.00;99.90;;;;;;4977585;28;20189;-82
2021/12/27 01:21:43;;;;;;;13.57;10.52;;;11.00;99.90;;;;;;4977751;28;20170;-87
2021/12/27 01:24:09;;;;;;;16.17;10.73;;;10.90;99.90;;;;;;4977428;28;20166;-86
2021/12/27 01:26:34;;;;;;;19.40;10.07;;;10.90;99.90;;;;;;4977807;28;20162;-85
2021/12/27 01:29:01;;;;;;;23.90;10.00;;;10.80;99.90;;;;;;4976654;28;20212;-83
2021/12/27 01:31:28;;;;;;;14.15;10.55;;;11.00;99.90;;;;;;4977646;28;20192;-82
2021/12/27 01:33:54;;;;;;;13.48;10.18;;;11.00;99.90;;;;;;4977730;28;20214;-87
2021/12/27 01:36:20;;;;;;;13.68;10.40;;;11.10;99.90;;;;;;4977619;28;20177;-84
2021/12/27 01:38:47;;;;;;;19.25;11.07;;;11.20;99.90;;;;;;4977414;28;20190;-86
2021/12/27 01:41:15;;;;;;;18.60;11.32;;;11.20;99.90;;;;;;4977681;28;20322;-87
2021/12/27 01:43:42;;;;;;;18.67;10.45;;;11.30;99.90;;;;;;4977857;28;20216;-85
2021/12/27 01:46:17;;;;;;;17.67;11.57;;;11.30;99.90;;;;;;4977379;28;20170;-87
2021/12/27 01:48:53;;;;;;;17.92;10.60;;;11.20;99.90;;;;;;4976132;28;20743;-80
2021/12/27 01:51:19;;;;;;;12.77;11.02;;;11.30;99.90;;;;;;4976349;28;20170;-79
2021/12/27 01:53:46;;;;;;;15.55;11.15;;;11.30;99.90;;;;;;4975825;28;20200;-78
2021/12/27 01:56:13;;;;;;;14.45;10.35;;;11.20;99.90;;;;;;4976089;28;20172;-80
2021/12/27 01:58:40;;;;;;;18.55;10.35;;;11.20;99.90;;;;;;4975235;28;20201;-81
2021/12/27 02:01:08;;;;;;;17.30;10.45;;;11.10;99.90;;;;;;4976283;28;20185;-83
2021/12/27 02:03:35;;;;;;;19.23;10.95;;;11.20;99.90;;;;;;4976270;28;20586;-80
2021/12/27 02:06:01;;;;;;;17.55;11.68;;;11.10;99.90;;;;;;4975839;28;20166;-79
2021/12/27 02:08:28;;;;;;;17.75;11.90;;;11.20;99.90;;;;;;4991000;28;20212;-80
2021/12/27 02:10:54;;;;;;;18.05;11.77;;;11.30;99.90;;;;;;4976396;28;20580;-79
2021/12/27 02:13:20;;;;;;;16.38;12.43;;;11.50;99.90;;;;;;4976247;28;20229;-79
2021/12/27 02:15:46;;;;;;;19.05;11.90;;;11.60;99.90;;;;;;4976620;28;20529;-80
2021/12/27 02:18:11;;;;;;;16.60;11.68;;;11.60;99.90;;;;;;4975000;28;20190;-81
2021/12/27 02:20:40;;;;;;;17.60;12.40;;;11.60;99.90;;;;;;4976182;28;20192;-82
2021/12/27 02:23:12;;;;;;;20.10;12.52;;;11.50;99.90;;;;;;4976035;28;20208;-78
2021/12/27 02:25:38;;;;;;;23.27;11.77;;;11.50;99.90;;;;;;4975664;28;20170;-79
2021/12/27 02:28:05;;;;;;;17.35;11.48;;;11.40;99.90;;;;;;4975733;28;20193;-82
2021/12/27 02:30:31;;;;;;;19.73;12.10;;;11.20;99.90;;;;;;4975528;28;20573;-80
2021/12/27 02:33:00;;;;;;;20.08;11.68;;;11.20;99.90;;;;;;4975662;28;20236;-79
2021/12/27 02:35:37;;;;;;;16.88;11.93;;;11.30;99.90;;;;;;4975923;28;20182;-79
2021/12/27 02:38:04;;;;;;;16.65;11.98;;;11.40;99.90;;;;;;4975653;28;20289;-78
2021/12/27 02:40:32;;;;;;;22.73;12.48;;;11.40;99.90;;;;;;4975353;28;20215;-81
2021/12/27 02:43:12;;;;;;;21.25;12.70;;;11.30;99.90;;;;;;4974863;28;20166;-79
2021/12/27 02:45:42;;;;;;;18.95;11.52;;;11.40;99.90;;;;;;4975445;28;20204;-79
2021/12/27 02:48:09;;;;;;;21.33;13.30;;;11.30;99.90;;;;;;4974890;28;20572;-79
2021/12/27 02:50:35;;;;;;;23.08;13.43;;;11.40;99.90;;;;;;4973905;28;20185;-79
2021/12/27 02:53:03;;;;;;;25.70;11.80;;;11.40;99.90;;;;;;4975558;28;20170;-80
2021/12/27 02:55:29;;;;;;;28.05;13.85;;;11.30;99.90;;;;;;4976323;28;20174;-86
2021/12/27 02:57:55;;;;;;;23.60;12.60;;;11.30;99.90;;;;;;4976486;28;20195;-85
2021/12/27 03:00:27;;;;;;;19.33;12.35;;;11.30;99.90;;;;;;4977565;28;20180;-83
2021/12/27 03:02:54;;;;;;;19.85;11.82;;;11.30;99.90;;;;;;4990541;28;20686;-79
2021/12/27 03:05:21;;;;;;;23.67;14.23;;;11.40;99.90;;;;;;4988536;28;20234;-79
2021/12/27 03:07:49;;;;;;;20.83;13.30;;;11.50;99.90;;;;;;4989480;28;20194;-80
2021/12/27 03:10:18;;;;;;;29.13;12.68;;;11.40;99.90;;;;;;4986086;28;20166;-84
2021/12/27 03:12:45;;;;;;;22.85;13.60;;;11.30;99.90;;;;;;4977440;28;20679;-79
2021/12/27 03:15:13;;;;;;;23.65;14.25;;;11.30;99.90;;;;;;4979024;28;20224;-80
2021/12/27 03:17:40;;;;;;;24.02;13.95;;;11.30;99.90;;;;;;4977288;28;20200;-83
2021/12/27 03:20:07;;;;;;;23.10;13.63;;;11.20;99.90;;;;;;4975345;28;20268;-79
2021/12/27 03:22:34;;;;;;;29.17;15.45;;;11.10;99.90;;;;;;4975056;28;20510;-87
2021/12/27 03:25:00;;;;;;;21.27;13.63;;;11.20;99.90;;;;;;4974757;28;20230;-83
2021/12/27 03:27:26;;;;;;;22.70;13.68;;;11.20;99.90;;;;;;4974746;28;20201;-86
2021/12/27 03:29:53;;;;;;;31.02;14.65;;;11.20;99.90;;;;;;4975117;28;20277;-81
2021/12/27 03:32:21;;;;;;;21.27;13.43;;;11.20;99.90;;;;;;4974989;28;20233;-83
2021/12/27 03:35:03;;;;;;;28.63;14.38;;;11.10;99.90;;;;;;4974455;28;20206;-79
2021/12/27 03:37:30;;;;;;;21.05;14.00;;;11.00;99.90;;;;;;4989328;28;20170;-82
2021/12/27 03:39:56;;;;;;;24.63;13.35;;;10.80;99.90;;;;;;4973934;28;20197;-81
2021/12/27 03:42:21;;;;;;;29.55;13.43;;;10.90;99.90;;;;;;4974685;28;20174;-80
2021/12/27 03:44:48;;;;;;;22.95;14.25;;;10.80;99.90;;;;;;4974488;28;20626;-86
2021/12/27 03:47:14;;;;;;;29.60;14.57;;;10.60;99.90;;;;;;4972930;28;20174;-79
2021/12/27 03:49:39;;;;;;;30.80;13.75;;;10.40;99.90;;;;;;4974434;28;20185;-82
2021/12/27 03:52:05;;;;;;;25.27;13.65;;;10.40;99.90;;;;;;4974728;28;20178;-84
2021/12/27 03:54:31;;;;;;;22.05;13.32;;;10.40;99.90;;;;;;4973253;28;20209;-79
2021/12/27 03:56:57;;;;;;;22.48;13.82;;;10.50;99.90;;;;;;4974866;28;20162;-86
2021/12/27 03:59:36;;;;;;;22.67;13.23;;;10.70;99.90;;;;;;4973158;28;20201;-78
2021/12/27 04:02:05;;;;;;;23.08;12.82;;;10.70;99.90;;;;;;4974194;28;20249;-85
2021/12/27 04:04:33;;;;;;;22.00;13.38;;;10.50;99.90;;;;;;4974908;28;20170;-79
2021/12/27 04:06:59;;;;;;;15.10;11.02;;;10.50;99.90;;;;;;4974660;28;20611;-81
2021/12/27 04:09:24;;;;;;;16.50;10.07;;;10.60;99.90;;;;;;4989513;28;20281;-85
2021/12/27 04:11:50;;;;;;;25.73;11.63;;;10.40;99.90;;;;;;4973294;28;20654;-85
2021/12/27 04:14:15;;;;;;;21.98;11.43;;;10.40;99.90;;;;;;4974730;28;20555;-87
2021/12/27 04:16:41;;;;;;;21.60;11.27;;;10.40;99.90;;;;;;4973278;28;20180;-82
2021/12/27 04:19:07;;;;;;;22.05;10.45;;;10.50;99.90;;;;;;4974780;28;20194;-85
2021/12/27 04:21:32;;;;;;;16.73;10.18;;;10.50;99.90;;;;;;4974497;28;20177;-80
2021/12/27 04:23:58;;;;;;;23.10;10.73;;;10.40;99.90;;;;;;4974173;28;20248;-79
2021/12/27 04:26:23;;;;;;;22.40;9.75;;;10.30;99.90;;;;;;4973990;28;20197;-80
2021/12/27 04:28:50;;;;;;;15.55;9.40;;;10.30;99.90;;;;;;4973689;28;20181;-78
2021/12/27 04:31:16;;;;;;;17.02;9.30;;;10.20;99.90;;;;;;4973721;28;20173;-78
2021/12/27 04:33:43;;;;;;;13.00;8.85;;;10.00;99.90;;;;;;4973388;28;20298;-82
2021/12/27 04:36:08;;;;;;;15.48;9.75;;;10.00;99.90;;;;;;4974365;28;20169;-83
2021/12/27 04:38:35;;;;;;;21.88;10.65;;;10.00;99.90;;;;;;4989390;28;20705;-84
2021/12/27 04:41:01;;;;;;;17.15;9.80;;;10.00;99.90;;;;;;4972520;28;20228;-80
2021/12/27 04:43:27;;;;;;;17.30;8.70;;;10.10;99.90;;;;;;4988409;28;20166;-78
2021/12/27 04:45:54;;;;;;;18.23;9.45;;;10.10;99.90;;;;;;4973839;28;20249;-81
2021/12/27 04:48:21;;;;;;;12.57;7.78;;;10.20;99.90;;;;;;4973654;28;20255;-80
2021/12/27 04:50:47;;;;;;;16.63;8.70;;;10.20;99.90;;;;;;4973616;28;20177;-79
2021/12/27 04:53:13;;;;;;;12.88;7.15;;;10.20;99.90;;;;;;4973724;28;20613;-81
2021/12/27 04:55:39;;;;;;;13.18;8.05;;;10.20;99.90;;;;;;4973501;28;20170;-80
2021/12/27 04:58:08;;;;;;;17.67;7.13;;;10.20;99.90;;;;;;4988283;28;20244;-81
2021/12/27 05:00:34;;;;;;;13.70;6.55;;;10.30;99.90;;;;;;4973484;28;20177;-84
2021/12/27 05:03:00;;;;;;;12.02;7.22;;;10.30;99.90;;;;;;4973209;28;20174;-81
2021/12/27 05:05:26;;;;;;;13.35;7.25;;;10.30;99.90;;;;;;4973843;28;20174;-79
2021/12/27 05:07:52;;;;;;;15.15;7.30;;;10.30;99.90;;;;;;4977011;28;20181;-79
2021/12/27 05:10:18;;;;;;;11.73;6.85;;;10.40;99.90;;;;;;4992029;28;20178;-80
2021/12/27 05:12:45;;;;;;;7.80;6.03;;;10.40;99.90;;;;;;4976899;28;20197;-79
2021/12/27 05:15:11;;;;;;;9.40;6.72;;;10.30;99.90;;;;;;4977267;28;20221;-79
2021/12/27 05:17:37;;;;;;;14.35;6.70;;;10.30;99.90;;;;;;4976761;28;20162;-83
2021/12/27 05:20:05;;;;;;;11.02;6.35;;;10.20;99.90;;;;;;4991345;28;20176;-82
2021/12/27 05:22:31;;;;;;;11.80;5.75;;;10.40;99.90;;;;;;4976882;28;20176;-84
2021/12/27 05:24:57;;;;;;;7.20;5.55;;;10.40;99.90;;;;;;4976739;28;20170;-80
2021/12/27 05:27:23;;;;;;;5.18;4.63;;;10.50;99.90;;;;;;4976959;28;20170;-82
2021/12/27 05:29:49;;;;;;;9.75;5.97;;;10.30;99.90;;;;;;4977197;28;20185;-86
2021/12/27 05:32:14;;;;;;;7.60;4.68;;;10.20;99.90;;;;;;4991849;28;20689;-84
2021/12/27 05:34:40;;;;;;;10.25;4.85;;;10.30;99.90;;;;;;4976741;28;20213;-82
2021/12/27 05:37:06;;;;;;;6.00;5.25;;;10.20;99.90;;;;;;4976972;28;20169;-81
2021/12/27 05:39:33;;;;;;;5.35;4.85;;;10.10;99.90;;;;;;4976396;28;20201;-82
2021/12/27 05:41:59;;;;;;;5.55;5.05;;;10.20;99.90;;;;;;4976894;28;20170;-81
2021/12/27 05:44:25;;;;;;;6.32;5.05;;;10.20;99.90;;;;;;4976419;28;20173;-83
2021/12/27 05:46:50;;;;;;;7.38;5.03;;;10.40;99.90;;;;;;4991409;28;20195;-79
2021/12/27 05:49:16;;;;;;;7.15;4.78;;;10.50;99.90;;;;;;4976525;28;20228;-80
2021/12/27 05:51:43;;;;;;;9.18;5.45;;;10.70;99.90;;;;;;4976685;28;20200;-79
2021/12/27 05:54:10;;;;;;;6.25;5.30;;;10.70;99.90;;;;;;4976725;28;20198;-84
2021/12/27 05:56:36;;;;;;;6.97;4.88;;;10.80;99.90;;;;;;4976561;28;20188;-79
2021/12/27 05:59:02;;;;;;;7.10;5.90;;;10.80;99.90;;;;;;4991755;28;20186;-79
2021/12/27 06:01:28;;;;;;;7.95;5.38;;;10.70;99.90;;;;;;4976771;28;20168;-82
2021/12/27 06:03:57;;;;;;;5.97;5.38;;;10.70;99.90;;;;;;4977100;28;20154;-78
2021/12/27 06:06:24;;;;;;;6.90;5.00;;;10.80;99.90;;;;;;4976860;28;20174;-85
2021/12/27 06:08:49;;;;;;;8.30;5.45;;;10.80;99.90;;;;;;4991550;28;20201;-83
2021/12/27 06:11:15;;;;;;;11.13;6.22;;;10.80;99.90;;;;;;4976092;28;20252;-79
2021/12/27 06:13:41;;;;;;;11.93;6.47;;;10.80;99.90;;;;;;4975879;28;20194;-80
2021/12/27 06:16:06;;;;;;;9.18;5.43;;;10.80;99.90;;;;;;4975857;28;20252;-85
2021/12/27 06:18:32;;;;;;;7.40;6.43;;;10.70;99.90;;;;;;4975070;28;20189;-80
2021/12/27 06:20:58;;;;;;;7.47;5.55;;;10.60;99.90;;;;;;4975966;28;20202;-79
2021/12/27 06:23:23;;;;;;;11.10;5.85;;;10.50;99.90;;;;;;4975925;28;20635;-78
2021/12/27 06:25:49;;;;;;;13.23;5.97;;;10.50;99.90;;;;;;4975725;28;20640;-78
2021/12/27 06:28:16;;;;;;;13.85;6.55;;;10.50;99.90;;;;;;4975112;28;20679;-82
2021/12/27 06:30:42;;;;;;;9.27;7.03;;;10.40;99.90;;;;;;4991047;28;20172;-80
2021/12/27 06:33:08;;;;;;;18.35;8.50;;;10.20;99.90;;;;;;4975387;28;20174;-79
2021/12/27 06:35:34;;;;;;;12.02;8.43;;;10.30;99.90;;;;;;4975739;28;20185;-81
2021/12/27 06:38:00;;;;;;;15.02;8.10;;;10.30;99.90;;;;;;4975764;28;20284;-79
2021/12/27 06:40:26;;;;;;;13.80;7.90;;;10.20;99.90;;;;;;4990766;28;20264;-82
2021/12/27 06:42:51;;;;;;;14.35;8.68;;;10.20;99.90;;;;;;4975436;28;20166;-79
2021/12/27 06:45:17;;;;;;;11.02;7.18;;;10.30;99.90;;;;;;4975531;28;20170;-81
2021/12/27 06:47:43;;;;;;;17.92;7.85;;;10.40;99.90;;;;;;4974990;28;20182;-80
2021/12/27 06:50:11;;;;;;;13.18;8.18;;;10.40;99.90;;;;;;4990107;28;20178;-81
2021/12/27 06:52:37;;;;;;;10.02;7.50;;;10.30;99.90;;;;;;4973774;28;20180;-77
2021/12/27 06:55:03;;;;;;;20.98;8.07;;;10.30;99.90;;;;;;4974855;28;20217;-77
2021/12/27 06:57:30;;;;;;;12.60;6.90;;;10.30;99.90;;;;;;4974890;28;20197;-83
2021/12/27 06:59:56;;;;;;;15.27;7.72;;;10.40;99.90;;;;;;4967208;28;20204;-82
2021/12/27 07:02:22;;;;;;;17.13;8.00;;;10.30;99.90;;;;;;4955326;29;20225;-79
2021/12/27 07:04:48;;;;;;;12.40;7.28;;;10.40;99.90;;;;;;4955491;29;20178;-83
2021/12/27 07:07:13;;;;;;;12.48;6.88;;;10.30;99.90;;;;;;4955560;29;20166;-79
2021/12/27 07:09:39;;;;;;;9.65;6.97;;;10.30;99.90;;;;;;4955361;29;20519;-82
2021/12/27 07:12:06;;;;;;;11.95;6.90;;;10.40;99.90;;;;;;4955541;28;20198;-80
2021/12/27 07:14:31;;;;;;;7.45;6.75;;;10.50;99.90;;;;;;4955559;29;20608;-78
2021/12/27 07:16:57;;;;;;;13.60;7.97;;;10.60;99.90;;;;;;4955461;29;20163;-80
2021/12/27 07:19:22;;;;;;;13.32;7.18;;;10.60;99.90;;;;;;4955218;29;20213;-82
2021/12/27 07:21:48;;;;;;;9.43;6.28;;;10.60;99.90;;;;;;4955141;29;20501;-83
2021/12/27 07:24:14;;;;;;;8.18;6.10;;;10.50;99.90;;;;;;4954796;29;20527;-78
2021/12/27 07:26:39;;;;;;;9.18;5.88;;;10.50;99.90;;;;;;4955232;28;20198;-79
2021/12/27 07:29:05;;;;;;;11.15;6.45;;;10.50;99.90;;;;;;4954871;28;20288;-80
2021/12/27 07:31:30;;;;;;;9.13;5.97;;;10.50;99.90;;;;;;4954698;28;20171;-82
2021/12/27 07:33:57;;;;;;;10.77;7.75;;;10.50;99.90;;;;;;4954512;29;20217;-79
2021/12/27 07:36:22;;;;;;;12.80;9.43;;;10.40;99.90;;;;;;4954634;29;20172;-79
2021/12/27 07:38:48;;;;;;;9.07;5.97;;;10.60;99.90;;;;;;4954851;28;20198;-80
2021/12/27 07:41:14;;;;;;;7.60;5.90;;;10.60;99.90;;;;;;4955268;28;20163;-80
2021/12/27 07:43:40;;;;;;;8.25;5.18;;;10.70;99.90;;;;;;4955130;29;20171;-77
2021/12/27 07:46:05;;;;;;;8.95;5.90;;;10.40;99.90;;;;;;4955190;28;20623;-80
2021/12/27 07:48:31;;;;;;;9.30;5.00;;;10.50;99.90;;;;;;4969571;28;20695;-82
2021/12/27 07:50:56;;;;;;;7.00;6.30;;;10.60;99.90;;;;;;4955581;29;20171;-78
2021/12/27 07:53:22;;;;;;;9.35;6.10;;;10.80;99.90;;;;;;4955696;28;20222;-80
2021/12/27 07:55:48;;;;;;;6.63;5.13;;;10.80;99.90;;;;;;4955638;28;20175;-81
2021/12/27 07:58:14;;;;;;;6.05;5.28;;;10.90;99.90;;;;;;4955800;29;20190;-78
2021/12/27 08:00:40;;;;;;;6.18;4.90;;;10.70;99.90;;;;;;4964270;29;20291;-78
2021/12/27 08:03:05;;;;;;;7.30;4.97;;;10.90;99.90;;;;;;4968526;29;20178;-78
2021/12/27 08:05:31;;;;;;;6.57;4.35;;;10.90;99.90;;;;;;4983643;28;20166;-78
2021/12/27 08:07:56;;;;;;;7.22;4.32;;;10.80;99.90;;;;;;4965245;28;20226;-79
2021/12/27 08:10:22;;;;;;;6.78;4.25;;;10.60;99.90;;;;;;4965889;28;20240;-77
2021/12/27 08:12:48;;;;;;;6.25;4.20;;;10.70;99.90;;;;;;4975476;28;20173;-81
2021/12/27 08:15:14;;;;;;;5.15;4.65;;;10.80;99.90;;;;;;4974681;28;20300;-85
2021/12/27 08:17:40;;;;;;;7.60;4.68;;;10.90;99.90;;;;;;4973057;28;20244;-85
2021/12/27 08:20:07;;;;;;;4.00;3.65;;;10.90;99.90;;;;;;4972789;28;20185;-80
2021/12/27 08:22:33;;;;;;;7.15;2.92;;;11.00;99.90;;;;;;4971805;28;20174;-86
2021/12/27 08:24:58;;;;;;;3.72;3.22;;;11.00;99.90;;;;;;4971390;28;20261;-82
2021/12/27 08:27:26;;;;;;;3.53;3.13;;;11.00;99.90;;;;;;4987744;28;20265;-78
2021/12/27 08:29:52;;;;;;;3.45;3.13;;;11.10;99.90;;;;;;4971989;28;20194;-78
2021/12/27 08:32:18;;;;;;;3.78;2.67;;;10.90;99.90;;;;;;4990089;28;20230;-85
2021/12/27 08:34:44;;;;;;;4.18;3.08;;;10.70;99.90;;;;;;4974938;28;20209;-80
2021/12/27 08:37:10;;;;;;;3.95;3.30;;;10.70;99.90;;;;;;4974358;28;20170;-78
2021/12/27 08:39:38;;;;;;;6.20;2.92;;;10.50;99.90;;;;;;4969663;28;20205;-84
2021/12/27 08:42:07;;;;;;;3.85;2.67;;;10.70;99.90;;;;;;4976256;28;20321;-78
2021/12/27 08:44:34;;;;;;;4.13;2.80;;;10.90;99.90;;;;;;4973772;28;20166;-77
2021/12/27 08:46:59;;;;;;;3.67;3.17;;;10.90;99.90;;;;;;4994449;28;20178;-81
2021/12/27 08:49:25;;;;;;;4.22;2.70;;;11.10;99.90;;;;;;4978597;28;20217;-78
2021/12/27 08:51:51;;;;;;;4.75;2.75;;;11.10;99.90;;;;;;4977093;28;20175;-79
2021/12/27 08:54:17;;;;;;;4.35;3.55;;;11.00;99.90;;;;;;4969843;28;20194;-78
2021/12/27 08:56:42;;;;;;;3.60;2.78;;;11.10;99.90;;;;;;4958848;29;20221;-79
2021/12/27 08:59:08;;;;;;;3.33;2.97;;;11.20;99.90;;;;;;4962107;29;20186;-81
2021/12/27 09:01:34;;;;;;;3.78;3.22;;;11.10;99.90;;;;;;4958890;29;20202;-83
2021/12/27 09:04:00;;;;;;;6.70;3.38;;;10.90;99.90;;;;;;4960397;28;20174;-79
2021/12/27 09:06:26;;;;;;;4.50;3.80;;;11.00;99.90;;;;;;4960360;29;20171;-78
2021/12/27 09:08:51;;;;;;;5.38;3.45;;;11.00;99.90;;;;;;4959785;28;20209;-82
2021/12/27 09:11:17;;;;;;;5.72;3.92;;;11.20;99.90;;;;;;4960119;29;20229;-78
2021/12/27 09:13:42;;;;;;;3.97;2.97;;;11.20;99.90;;;;;;4958721;28;20190;-85
2021/12/27 09:16:10;;;;;;;4.75;3.30;;;11.40;99.90;;;;;;4959952;29;20167;-76
2021/12/27 09:18:36;;;;;;;4.43;3.33;;;11.50;99.90;;;;;;4958022;29;20656;-78
2021/12/27 09:21:03;;;;;;;4.63;3.65;;;11.40;99.90;;;;;;4957699;29;20199;-79
2021/12/27 09:23:29;;;;;;;3.88;3.53;;;11.60;99.90;;;;;;4957961;28;20174;-80
2021/12/27 09:25:55;;;;;;;6.82;4.07;;;11.70;99.90;;;;;;4958633;28;20171;-78
2021/12/27 09:28:20;;;;;;;4.22;3.70;;;11.80;99.90;;;;;;4959712;28;20197;-79
2021/12/27 09:30:46;;;;;;;10.68;3.55;;;11.70;99.90;;;;;;4958605;28;20174;-79
2021/12/27 09:33:12;;;;;;;4.28;3.78;;;12.00;99.90;;;;;;4974107;28;20174;-78
2021/12/27 09:35:38;;;;;;;4.38;3.05;;;12.00;99.90;;;;;;4968433;28;20222;-80
2021/12/27 09:38:04;;;;;;;3.60;3.03;;;12.10;99.90;;;;;;4981028;28;20207;-78
2021/12/27 09:40:30;;;;;;;3.10;2.70;;;12.00;99.90;;;;;;4960391;29;20182;-80
2021/12/27 09:42:57;;;;;;;3.28;2.58;;;12.20;99.90;;;;;;4973836;28;20171;-81
2021/12/27 09:45:22;;;;;;;4.07;2.65;;;12.20;99.90;;;;;;4959021;29;20177;-79
2021/12/27 09:47:51;;;;;;;2.78;2.55;;;12.20;99.90;;;;;;4957854;28;20178;-79
2021/12/27 09:50:22;;;;;;;5.95;3.00;;;12.10;99.90;;;;;;4972407;28;20601;-84
2021/12/27 09:52:47;;;;;;;10.77;3.78;;;12.10;99.90;;;;;;4970858;28;20178;-78
2021/12/27 09:55:13;;;;;;;7.95;3.17;;;12.20;99.90;;;;;;4956990;29;20366;-78
2021/12/27 09:57:39;;;;;;;4.20;2.85;;;12.20;99.90;;;;;;4956920;28;20171;-78
2021/12/27 10:00:07;;;;;;;2.88;2.47;;;12.10;99.90;;;;;;4957335;28;20170;-82
2021/12/27 10:02:37;;;;;;;6.15;2.05;;;12.10;99.90;;;;;;4957537;29;20162;-83
2021/12/27 10:05:03;;;;;;;3.95;2.25;;;12.30;99.90;;;;;;4959039;28;20170;-78
2021/12/27 10:07:30;;;;;;;12.18;2.30;;;12.50;99.90;;;;;;4960396;28;20225;-86
2021/12/27 10:10:00;;;;;;;3.38;2.20;;;12.10;99.90;;;;;;4975145;28;20186;-76
2021/12/27 10:12:27;;;;;;;4.15;2.03;;;11.70;99.90;;;;;;4960085;29;20175;-81
2021/12/27 10:15:01;;;;;;;2.97;1.80;;;11.90;99.90;;;;;;4957405;29;20242;-77
2021/12/27 10:17:30;;;;;;;1.95;1.77;;;12.10;99.90;;;;;;4957052;28;20624;-79
2021/12/27 10:20:08;;;;;;;2.80;1.98;;;12.20;99.90;;;;;;4957522;29;20498;-81
2021/12/27 10:22:38;;;;;;;3.58;1.83;;;12.30;99.90;;;;;;4955947;29;20171;-83
2021/12/27 10:25:15;;;;;;;3.53;2.40;;;12.30;99.90;;;;;;4957632;29;20182;-85
2021/12/27 10:27:41;;;;;;;7.50;2.13;;;12.40;99.90;;;;;;4957176;28;20177;-80
2021/12/27 10:30:13;;;;;;;3.42;1.58;;;12.40;99.90;;;;;;4959422;28;20647;-77
2021/12/27 10:32:38;;;;;;;1.90;1.67;;;12.40;99.90;;;;;;4969038;28;20185;-84
2021/12/27 10:35:09;;;;;;;1.90;1.67;;;12.30;99.90;;;;;;4976110;28;20205;-81
2021/12/27 10:37:36;;;;;;;4.57;1.60;;;12.30;99.90;;;;;;4982378;28;20612;-83
2021/12/27 10:40:07;;;;;;;1.55;1.45;;;12.20;99.90;;;;;;4975908;28;20174;-79
2021/12/27 10:42:37;;;;;;;2.65;2.30;;;12.20;99.90;;;;;;4975610;28;20185;-85
2021/12/27 10:45:10;;;;;;;3.03;2.05;;;12.30;99.90;;;;;;4975700;28;20208;-80
2021/12/27 10:47:51;;;;;;;3.28;2.63;;;12.50;99.90;;;;;;4975388;28;20178;-84
2021/12/27 10:50:23;;;;;;;7.13;5.57;;;12.50;99.90;;;;;;4975797;28;20202;-80
2021/12/27 10:53:02;;;;;;;1.83;1.73;;;12.70;99.90;;;;;;4975438;28;20304;-78
2021/12/27 10:55:40;;;;;;;2.88;2.13;;;12.60;99.90;;;;;;4976053;28;20223;-79
2021/12/27 10:58:18;;;;;;;4.22;2.10;;;12.60;99.90;;;;;;4976240;28;20209;-85
2021/12/27 11:00:48;;;;;;;3.40;2.35;;;12.70;99.90;;;;;;4976538;28;20622;-82
2021/12/27 11:03:30;;;;;;;2.13;1.90;;;12.70;99.90;;;;;;4974618;28;20265;-80
2021/12/27 11:05:57;;;;;;;2.45;1.90;;;12.40;99.90;;;;;;4976146;28;20200;-86
2021/12/27 11:08:23;;;;;;;2.30;2.10;;;12.40;99.90;;;;;;4976280;28;20193;-81
2021/12/27 11:10:49;;;;;;;3.15;2.13;;;12.40;99.90;;;;;;4975878;28;20174;-80
2021/12/27 11:13:15;;;;;;;5.53;2.10;;;12.30;99.90;;;;;;4975305;28;20181;-78
2021/12/27 11:15:42;;;;;;;3.60;2.13;;;12.30;99.90;;;;;;4975409;28;20182;-78
2021/12/27 11:18:08;;;;;;;4.15;1.88;;;12.40;99.90;;;;;;4974362;28;20189;-84
2021/12/27 11:20:35;;;;;;;3.28;1.90;;;12.30;99.90;;;;;;4975162;28;20217;-82
2021/12/27 11:23:02;;;;;;;2.08;1.88;;;12.20;99.90;;;;;;4990230;28;20209;-78
2021/12/27 11:25:37;;;;;;;2.90;2.05;;;12.30;99.90;;;;;;4975014;28;20182;-79
2021/12/27 11:28:05;;;;;;;3.88;2.95;;;12.40;99.90;;;;;;4975363;28;20208;-85
2021/12/27 11:30:34;;;;;;;6.35;2.85;;;12.40;99.90;;;;;;4975304;28;20182;-80
2021/12/27 11:32:59;;;;;;;10.50;4.55;;;12.60;99.90;;;;;;4975761;28;20166;-84
2021/12/27 11:35:25;;;;;;;3.75;3.05;;;12.80;99.90;;;;;;4975362;28;20217;-82
2021/12/27 11:37:51;;;;;;;3.85;2.80;;;12.90;99.90;;;;;;4977036;28;20166;-78
2021/12/27 11:40:17;;;;;;;11.10;3.30;;;12.60;99.90;;;;;;4976729;28;20638;-79
2021/12/27 11:42:57;;;;;;;3.92;2.42;;;12.50;99.90;;;;;;4975804;28;20170;-81
2021/12/27 11:45:53;;;;;;;4.38;2.60;;;12.70;99.90;;;;;;4975359;28;20214;-77
2021/12/27 11:48:25;;;;;;;7.32;4.50;;;12.70;99.90;;;;;;4989943;28;20206;-78
2021/12/27 11:50:56;;;;;;;8.43;2.40;;;12.70;99.90;;;;;;4974948;28;20666;-79
2021/12/27 11:53:31;;;;;;;7.53;2.78;;;12.90;99.90;;;;;;4977794;28;20292;-79
2021/12/27 11:55:57;;;;;;;3.22;3.00;;;12.90;99.90;;;;;;4975736;28;20244;-79
2021/12/27 11:58:40;;;;;;;4.57;2.97;;;12.80;99.90;;;;;;4975886;28;20192;-79
2021/12/27 12:01:25;;;;;;;3.38;2.40;;;12.80;99.90;;;;;;4976460;28;20639;-78
2021/12/27 12:03:55;;;;;;;3.85;3.30;;;12.60;99.90;;;;;;4976947;28;20170;-79
2021/12/27 12:06:42;;;;;;;3.42;2.97;;;12.60;99.90;;;;;;4980915;28;20225;-78
2021/12/27 12:09:14;;;;;;;8.10;3.60;;;12.60;99.90;;;;;;4996099;28;20178;-80
2021/12/27 12:11:40;;;;;;;3.13;2.83;;;12.60;99.90;;;;;;4986419;28;20205;-83
2021/12/27 12:14:25;;;;;;;4.32;2.35;;;12.60;99.90;;;;;;4989582;28;20870;-80
2021/12/27 12:16:51;;;;;;;4.47;3.20;;;12.50;99.90;;;;;;4978048;28;20267;-83
2021/12/27 12:19:17;;;;;;;5.40;3.58;;;12.50;99.90;;;;;;4978492;28;20270;-85
2021/12/27 12:21:45;;;;;;;6.65;3.08;;;12.50;99.90;;;;;;4978446;28;20252;-79
2021/12/27 12:24:10;;;;;;;3.70;3.00;;;12.70;99.90;;;;;;4980140;28;20980;-78
2021/12/27 12:26:52;;;;;;;7.63;3.03;;;12.80;99.90;;;;;;4978873;28;20174;-80
2021/12/27 12:29:19;;;;;;;5.97;2.72;;;12.50;99.90;;;;;;4978831;28;20255;-82
2021/12/27 12:31:45;;;;;;;6.53;2.53;;;12.50;99.90;;;;;;4978822;28;20197;-79
2021/12/27 12:34:19;;;;;;;4.68;2.63;;;12.30;99.90;;;;;;4977818;28;20584;-79
2021/12/27 12:36:49;;;;;;;5.40;2.80;;;12.30;99.90;;;;;;4978055;28;20204;-84
2021/12/27 12:39:16;;;;;;;8.48;3.03;;;12.20;99.90;;;;;;4977801;28;20201;-80